createdAt,value
2018-02-06T00:00:40.035Z,21.90
2018-02-06T00:03:07.712Z,21.47
2018-02-06T00:05:35.385Z,20.73
2018-02-06T00:08:03.852Z,21.03
2018-02-06T00:10:31.538Z,20.33
2018-02-06T00:12:59.939Z,19.57
2018-02-06T00:15:27.655Z,19.40
2018-02-06T00:17:55.332Z,20.63
2018-02-06T00:20:23.025Z,20.00
2018-02-06T00:22:50.759Z,19.33
2018-02-06T00:25:18.432Z,20.33
2018-02-06T00:27:46.871Z,19.87
2018-02-06T00:30:14.538Z,20.67
2018-02-06T00:32:42.206Z,19.60
2018-02-06T00:35:09.873Z,22.03
2018-02-06T00:37:37.551Z,19.63
2018-02-06T00:40:05.201Z,19.43
2018-02-06T00:42:32.890Z,20.10
2018-02-06T00:45:00.550Z,19.20
2018-02-06T00:47:28.219Z,19.90
2018-02-06T00:49:55.926Z,19.30
2018-02-06T00:52:23.564Z,20.10
2018-02-06T00:54:53.201Z,20.13
2018-02-06T00:57:20.870Z,18.83
2018-02-06T00:59:48.552Z,19.90
2018-02-06T01:02:16.238Z,19.37
2018-02-06T01:04:43.898Z,19.80
2018-02-06T01:07:11.572Z,19.73
2018-02-06T01:09:39.235Z,19.73
2018-02-06T01:12:07.694Z,19.40
2018-02-06T01:14:35.352Z,20.53
2018-02-06T01:17:03.006Z,19.47
2018-02-06T01:19:30.674Z,19.73
2018-02-06T01:21:58.317Z,18.97
2018-02-06T01:24:26.669Z,19.20
2018-02-06T01:26:55.100Z,19.90
2018-02-06T01:29:22.775Z,19.73
2018-02-06T01:31:50.427Z,19.20
2018-02-06T01:34:18.097Z,19.53
2018-02-06T01:36:45.767Z,20.00
2018-02-06T01:39:13.442Z,20.07
2018-02-06T01:41:41.091Z,18.33
2018-02-06T01:44:08.763Z,19.53
2018-02-06T01:46:36.425Z,18.13
2018-02-06T01:49:04.124Z,19.57
2018-02-06T01:51:31.794Z,19.30
2018-02-06T01:53:59.608Z,20.20
2018-02-06T01:56:27.284Z,19.80
2018-02-06T01:58:54.990Z,18.73
2018-02-06T02:01:22.661Z,19.23
2018-02-06T02:03:50.355Z,19.20
2018-02-06T02:06:17.925Z,19.33
2018-02-06T02:08:45.562Z,19.37
2018-02-06T02:11:13.212Z,19.83
2018-02-06T02:13:40.885Z,19.80
2018-02-06T02:16:08.555Z,19.53
2018-02-06T02:18:36.138Z,18.40
2018-02-06T02:21:03.811Z,18.70
2018-02-06T02:23:31.469Z,20.47
2018-02-06T02:25:59.146Z,18.20
2018-02-06T02:28:26.800Z,18.00
2018-02-06T02:30:54.471Z,20.03
2018-02-06T02:33:22.897Z,19.23
2018-02-06T02:35:50.494Z,19.67
2018-02-06T02:38:18.155Z,18.23
2018-02-06T02:40:45.822Z,18.93
2018-02-06T04:39:08.188Z,14.33
2018-02-06T04:41:37.220Z,15.17
2018-02-06T04:44:07.868Z,14.97
2018-02-06T04:46:35.599Z,15.03
2018-02-06T04:49:04.740Z,16.37
2018-02-06T04:51:33.778Z,15.33
2018-02-06T04:54:02.985Z,14.70
2018-02-06T04:56:32.474Z,15.17
2018-02-06T04:59:01.054Z,15.47
2018-02-06T05:01:29.933Z,14.20
2018-02-06T05:03:59.965Z,14.70
2018-02-06T05:06:28.415Z,15.63
2018-02-06T05:08:57.734Z,15.00
2018-02-06T05:11:25.900Z,17.83
2018-02-06T05:13:54.498Z,16.10
2018-02-06T05:16:23.056Z,14.90
2018-02-06T05:18:50.693Z,15.10
2018-02-06T05:21:19.194Z,15.53
2018-02-06T05:23:47.132Z,15.57
2018-02-06T05:26:15.603Z,17.30
2018-02-06T05:28:43.658Z,17.30
2018-02-06T05:31:13.600Z,17.50
2018-02-06T05:33:41.978Z,17.67
2018-02-06T05:36:09.780Z,18.83
2018-02-06T05:38:37.433Z,17.03
2018-02-06T05:41:05.097Z,18.20
2018-02-06T05:43:34.031Z,14.83
2018-02-06T05:46:01.714Z,15.67
2018-02-06T05:48:29.396Z,16.97
2018-02-06T05:50:57.402Z,16.40
2018-02-06T05:53:25.160Z,16.67
2018-02-06T05:55:54.035Z,16.47
2018-02-06T05:58:21.813Z,16.03
2018-02-06T06:00:49.502Z,16.40
2018-02-06T06:03:17.907Z,15.83
2018-02-06T06:05:46.594Z,15.97
2018-02-06T06:08:14.764Z,15.47
2018-02-06T06:10:42.441Z,15.33
2018-02-06T06:13:10.093Z,16.83
2018-02-06T06:15:38.119Z,14.87
2018-02-06T06:18:05.783Z,14.40
2018-02-06T06:20:33.441Z,14.87
2018-02-06T06:23:01.285Z,15.13
2018-02-06T06:25:29.287Z,13.87
2018-02-06T06:27:57.008Z,14.23
2018-02-06T06:30:24.667Z,15.03
2018-02-06T06:32:52.348Z,14.90
2018-02-06T06:35:21.420Z,14.70
2018-02-06T06:37:49.061Z,13.93
2018-02-06T06:40:18.041Z,13.80
2018-02-06T06:42:46.036Z,14.47
2018-02-06T06:45:14.145Z,13.53
2018-02-06T06:47:41.803Z,13.80
2018-02-06T06:50:09.483Z,13.57
2018-02-06T06:52:38.553Z,14.40
2018-02-06T06:55:07.566Z,14.13
2018-02-06T06:57:36.541Z,14.27
2018-02-06T07:00:04.419Z,13.17
2018-02-06T07:02:33.394Z,13.90
2018-02-06T07:05:02.899Z,14.23
2018-02-06T07:07:30.641Z,13.37
2018-02-06T07:09:59.512Z,14.20
2018-02-06T07:12:27.319Z,13.67
2018-02-06T07:14:57.860Z,13.70
2018-02-06T07:17:27.003Z,12.70
2018-02-06T07:19:55.932Z,13.37
2018-02-06T07:22:24.076Z,12.93
2018-02-06T07:24:51.732Z,12.73
2018-02-06T07:27:19.430Z,13.20
2018-02-06T07:29:47.067Z,14.23
2018-02-06T07:32:14.877Z,14.27
2018-02-06T07:34:43.749Z,13.53
2018-02-06T07:37:11.432Z,12.97
2018-02-06T07:39:39.112Z,13.17
2018-02-06T07:42:06.744Z,11.47
2018-02-06T07:44:34.408Z,11.43
2018-02-06T07:47:02.069Z,11.77
2018-02-06T07:49:29.741Z,11.77
2018-02-06T07:51:57.390Z,10.93
2018-02-06T07:54:25.022Z,11.20
2018-02-06T07:56:52.681Z,11.77
2018-02-06T07:59:20.990Z,11.30
2018-02-06T08:01:48.661Z,10.87
2018-02-06T08:04:16.559Z,11.27
2018-02-06T08:06:44.212Z,11.07
2018-02-06T08:09:11.880Z,10.80
2018-02-06T08:11:39.536Z,10.67
2018-02-06T08:14:07.188Z,10.63
2018-02-06T08:16:34.851Z,11.97
2018-02-06T08:19:02.526Z,10.90
2018-02-06T08:21:30.179Z,10.27
2018-02-06T08:23:57.773Z,11.23
2018-02-06T08:26:26.164Z,10.60
2018-02-06T08:28:53.833Z,10.63
2018-02-06T08:31:21.496Z,11.10
2018-02-06T08:33:52.885Z,10.20
2018-02-06T08:36:20.516Z,11.50
2018-02-06T08:38:48.208Z,10.23
2018-02-06T08:41:15.832Z,10.20
2018-02-06T08:43:43.504Z,10.43
2018-02-06T08:46:11.111Z,11.90
2018-02-06T08:48:38.701Z,10.27
2018-02-06T08:51:06.338Z,10.03
2018-02-06T08:53:39.025Z,10.50
2018-02-06T08:56:06.813Z,10.30
2018-02-06T08:58:34.628Z,10.00
2018-02-06T09:01:02.297Z,10.20
2018-02-06T09:03:29.961Z,10.10
2018-02-06T09:05:57.624Z,10.00
2018-02-06T09:08:25.319Z,10.60
2018-02-06T09:10:52.975Z,10.00
2018-02-06T09:13:20.621Z,9.67
2018-02-06T09:15:50.465Z,9.87
2018-02-06T09:18:18.132Z,10.83
2018-02-06T09:20:46.576Z,9.53
2018-02-06T09:23:14.240Z,11.23
2018-02-06T09:25:41.900Z,15.33
2018-02-06T09:28:09.570Z,10.77
2018-02-06T09:30:37.240Z,10.20
2018-02-06T09:33:04.900Z,9.77
2018-02-06T09:35:33.468Z,9.33
2018-02-06T09:38:01.150Z,10.20
2018-02-06T09:40:30.014Z,10.17
2018-02-06T09:42:58.275Z,9.90
2018-02-06T09:45:26.119Z,9.40
2018-02-06T09:47:53.706Z,8.50
2018-02-06T09:50:21.319Z,8.70
2018-02-06T09:52:49.080Z,8.53
2018-02-06T09:55:16.720Z,8.37
2018-02-06T09:57:44.405Z,8.43
2018-02-06T10:00:12.066Z,8.67
2018-02-06T10:02:39.722Z,8.80
2018-02-06T10:05:07.397Z,7.80
2018-02-06T10:07:35.052Z,9.60
2018-02-06T10:10:03.438Z,8.57
2018-02-06T10:12:32.042Z,10.03
2018-02-06T10:14:59.878Z,11.73
2018-02-06T10:17:27.967Z,9.53
2018-02-06T10:19:55.608Z,9.50
2018-02-06T10:22:23.934Z,10.33
2018-02-06T10:24:52.370Z,10.00
2018-02-06T10:27:20.470Z,9.70
2018-02-06T10:29:48.145Z,10.53
2018-02-06T10:32:16.114Z,10.27
2018-02-06T10:34:43.787Z,10.50
2018-02-06T10:37:12.195Z,10.30
2018-02-06T10:39:40.181Z,10.20
2018-02-06T10:42:08.703Z,9.77
2018-02-06T10:44:37.335Z,10.10
2018-02-06T10:47:05.081Z,10.10
2018-02-06T10:49:33.495Z,10.90
2018-02-06T10:52:01.171Z,9.60
2018-02-06T10:54:29.922Z,10.27
2018-02-06T10:56:58.438Z,10.40
2018-02-06T10:59:26.063Z,10.47
2018-02-06T11:01:53.743Z,10.63
2018-02-06T11:04:23.849Z,9.80
2018-02-06T11:06:52.127Z,8.50
2018-02-06T11:09:20.011Z,9.77
2018-02-06T11:11:48.766Z,10.17
2018-02-06T11:14:17.908Z,10.30
2018-02-06T11:16:45.795Z,10.13
2018-02-06T11:19:13.811Z,9.53
2018-02-06T11:21:42.892Z,9.70
2018-02-06T11:24:11.380Z,9.53
2018-02-06T11:26:40.483Z,9.60
2018-02-06T11:29:08.541Z,9.23
2018-02-06T11:31:36.337Z,9.63
2018-02-06T11:34:03.904Z,9.77
2018-02-06T11:36:31.498Z,9.13
2018-02-06T11:38:59.166Z,10.00
2018-02-06T11:41:27.669Z,9.80
2018-02-06T11:43:55.405Z,9.20
2018-02-06T11:46:23.068Z,8.70
2018-02-06T11:48:50.740Z,8.90
2018-02-06T11:51:18.372Z,9.63
2018-02-06T11:53:48.672Z,9.67
2018-02-06T11:56:16.529Z,15.27
2018-02-06T11:58:45.225Z,13.30
2018-02-06T12:01:14.953Z,9.93
2018-02-06T12:03:42.598Z,8.83
2018-02-06T12:06:11.001Z,9.07
2018-02-06T12:08:38.671Z,9.13
2018-02-06T12:11:06.527Z,8.57
2018-02-06T12:13:34.848Z,8.83
2018-02-06T12:16:02.524Z,9.43
2018-02-06T12:18:30.111Z,9.60
2018-02-06T12:20:58.558Z,9.07
2018-02-06T12:23:26.226Z,10.60
2018-02-06T12:25:53.870Z,8.83
2018-02-06T12:28:21.518Z,8.57
2018-02-06T12:30:49.151Z,8.57
2018-02-06T12:33:16.801Z,8.97
2018-02-06T12:35:48.340Z,8.83
2018-02-06T12:38:15.987Z,9.07
2018-02-06T12:40:43.635Z,9.20
2018-02-06T12:43:11.297Z,8.93
2018-02-06T12:45:38.965Z,9.43
2018-02-06T12:48:06.622Z,8.90
2018-02-06T12:50:34.266Z,8.37
2018-02-06T12:53:02.626Z,9.00
2018-02-06T12:55:30.316Z,9.20
2018-02-06T12:57:57.967Z,9.07
2018-02-06T13:00:25.675Z,8.10
2018-02-06T13:02:53.528Z,9.00
2018-02-06T13:05:22.664Z,8.93
2018-02-06T13:07:51.351Z,9.43
2018-02-06T13:10:19.294Z,10.83
2018-02-06T13:12:46.959Z,10.73
2018-02-06T13:15:15.255Z,10.27
2018-02-06T13:17:44.779Z,11.37
2018-02-06T13:20:13.237Z,10.20
2018-02-06T13:22:40.894Z,9.17
2018-02-06T13:25:08.532Z,8.70
2018-02-06T13:27:36.357Z,8.93
2018-02-06T13:30:04.339Z,8.37
2018-02-06T13:32:33.688Z,8.77
2018-02-06T13:35:05.945Z,9.13
2018-02-06T13:37:33.702Z,8.87
2018-02-06T13:40:03.064Z,11.37
2018-02-06T13:42:31.806Z,8.53
2018-02-06T13:45:00.411Z,8.93
2018-02-06T13:47:28.210Z,7.77
2018-02-06T13:49:57.760Z,9.53
2018-02-06T13:52:29.874Z,11.10
2018-02-06T13:54:59.378Z,10.13
2018-02-06T13:57:34.400Z,10.10
2018-02-06T14:00:02.753Z,10.37
2018-02-06T14:02:30.672Z,11.27
2018-02-06T14:04:58.531Z,11.80
2018-02-06T14:07:27.079Z,10.03
2018-02-06T14:09:54.750Z,10.20
2018-02-06T14:12:22.424Z,12.27
2018-02-06T14:14:50.096Z,12.20
2018-02-06T14:17:17.748Z,11.23
2018-02-06T14:19:45.420Z,11.33
2018-02-06T14:22:13.084Z,11.37
2018-02-06T14:24:42.882Z,15.23
2018-02-06T14:27:10.535Z,11.07
2018-02-06T14:29:38.191Z,10.47
2018-02-06T14:32:05.848Z,10.63
2018-02-06T14:34:33.555Z,12.17
2018-02-06T14:37:01.230Z,11.97
2018-02-06T14:39:29.649Z,10.77
2018-02-06T14:41:57.343Z,11.23
2018-02-06T14:44:25.003Z,11.60
2018-02-06T14:46:52.651Z,12.80
2018-02-06T14:49:20.327Z,10.30
2018-02-06T14:51:47.992Z,10.50
2018-02-06T14:54:16.602Z,10.30
2018-02-06T14:56:44.450Z,10.57
2018-02-06T14:59:12.113Z,12.40
2018-02-06T15:01:39.764Z,11.23
2018-02-06T15:04:07.442Z,12.17
2018-02-06T15:06:35.098Z,13.30
2018-02-06T15:09:02.775Z,15.00
2018-02-06T15:11:30.479Z,12.60
2018-02-06T15:13:58.115Z,12.33
2018-02-06T15:16:26.547Z,11.17
2018-02-06T15:18:54.221Z,17.60
2018-02-06T15:21:21.897Z,12.33
2018-02-06T15:23:51.655Z,11.27
2018-02-06T15:26:19.305Z,11.70
2018-02-06T15:28:47.837Z,16.17
2018-02-06T15:31:15.494Z,12.10
2018-02-06T15:33:43.176Z,16.00
2018-02-06T15:36:12.342Z,12.67
2018-02-06T15:38:39.996Z,13.53
2018-02-06T15:41:07.666Z,12.60
2018-02-06T15:43:35.361Z,12.70
2018-02-06T15:46:03.083Z,11.00
2018-02-06T15:48:31.512Z,14.37
2018-02-06T15:50:59.214Z,22.70
2018-02-06T15:53:27.648Z,12.37
2018-02-06T15:55:55.318Z,18.33
2018-02-06T15:58:22.982Z,13.93
2018-02-06T16:00:51.453Z,10.93
2018-02-06T16:03:19.127Z,12.10
2018-02-06T16:05:46.782Z,9.83
2018-02-06T16:08:14.447Z,10.37
2018-02-06T16:10:42.500Z,12.17
2018-02-06T16:13:10.154Z,12.17
2018-02-06T16:15:39.771Z,10.40
2018-02-06T16:18:07.445Z,10.97
2018-02-06T16:20:35.093Z,10.93
2018-02-06T16:23:02.780Z,10.13
2018-02-06T16:25:30.454Z,9.67
2018-02-06T16:27:58.105Z,10.03
2018-02-06T16:30:25.756Z,10.27
2018-02-06T16:32:53.458Z,15.27
2018-02-06T16:35:21.154Z,14.90
2018-02-06T16:37:49.570Z,11.87
2018-02-06T16:40:17.161Z,9.77
2018-02-06T16:42:44.879Z,9.63
2018-02-06T16:45:13.800Z,10.10
2018-02-06T16:47:41.454Z,10.40
2018-02-06T16:50:09.095Z,11.73
2018-02-06T16:52:36.802Z,10.23
2018-02-06T16:55:04.452Z,10.70
2018-02-06T16:57:32.108Z,10.10
2018-02-06T16:59:59.784Z,10.53
2018-02-06T17:02:39.340Z,10.47
2018-02-06T17:05:07.004Z,10.23
2018-02-06T17:07:34.685Z,12.20
2018-02-06T17:10:03.073Z,10.67
2018-02-06T17:12:31.500Z,13.33
2018-02-06T17:14:59.167Z,15.80
2018-02-06T17:17:26.809Z,10.30
2018-02-06T17:19:54.413Z,11.63
2018-02-06T17:22:22.085Z,10.77
2018-02-06T17:24:49.765Z,11.33
2018-02-06T17:27:17.404Z,12.20
2018-02-06T17:29:45.074Z,12.00
2018-02-06T17:32:12.721Z,12.67
2018-02-06T17:34:40.490Z,12.73
2018-02-06T17:37:08.099Z,11.73
2018-02-06T17:39:35.763Z,11.70
2018-02-06T17:42:03.463Z,11.33
2018-02-06T17:44:36.796Z,12.07
2018-02-06T17:47:04.455Z,11.93
2018-02-06T17:49:32.104Z,12.27
2018-02-06T17:51:59.784Z,12.90
2018-02-06T17:54:28.437Z,11.90
2018-02-06T17:56:56.078Z,12.37
2018-02-06T17:59:23.811Z,14.13
2018-02-06T18:01:51.468Z,13.97
2018-02-06T18:04:19.141Z,14.63
2018-02-06T18:06:47.573Z,14.90
2018-02-06T18:09:15.241Z,14.27
2018-02-06T18:11:42.882Z,17.03
2018-02-06T18:14:10.560Z,15.43
2018-02-06T18:16:38.228Z,16.70
2018-02-06T18:19:05.895Z,14.80
2018-02-06T18:21:33.632Z,15.07
2018-02-06T18:24:02.539Z,12.93
2018-02-06T18:26:30.144Z,14.87
2018-02-06T18:28:57.791Z,13.70
2018-02-06T18:31:25.447Z,13.37
2018-02-06T18:33:53.064Z,13.20
2018-02-06T18:36:22.217Z,13.90
2018-02-06T18:38:50.858Z,13.80
2018-02-06T18:41:18.652Z,13.97
2018-02-06T18:43:47.566Z,13.60
2018-02-06T18:46:16.655Z,14.60
2018-02-06T18:48:47.473Z,15.00
2018-02-06T18:51:17.681Z,15.00
2018-02-06T18:53:45.563Z,14.70
2018-02-06T18:56:13.233Z,15.60
2018-02-06T18:58:41.667Z,14.97
2018-02-06T19:01:10.797Z,14.67
2018-02-06T19:03:39.139Z,15.40
2018-02-06T19:06:06.887Z,15.47
2018-02-06T19:08:34.879Z,14.33
2018-02-06T19:11:02.549Z,14.30
2018-02-06T19:13:30.216Z,15.63
2018-02-06T19:15:57.919Z,15.97
2018-02-06T19:18:25.856Z,14.67
2018-02-06T19:20:53.620Z,15.33
2018-02-06T19:23:21.234Z,14.77
2018-02-06T19:25:49.798Z,15.43
2018-02-06T19:28:17.458Z,16.30
2018-02-06T19:30:45.425Z,18.30
2018-02-06T19:33:13.088Z,17.73
2018-02-06T19:35:42.351Z,16.87
2018-02-06T19:38:10.219Z,18.03
2018-02-06T19:40:37.878Z,17.80
2018-02-06T19:43:05.579Z,17.23
2018-02-06T19:45:33.245Z,16.60
2018-02-06T19:48:00.930Z,16.80
2018-02-06T19:50:28.603Z,17.50
2018-02-06T19:52:56.263Z,17.20
2018-02-06T19:55:24.880Z,16.57
2018-02-06T19:57:52.560Z,17.43
2018-02-06T20:00:22.002Z,19.77
2018-02-06T20:02:49.688Z,22.53
2018-02-06T20:05:18.502Z,25.00
2018-02-06T20:07:47.173Z,18.07
2018-02-06T20:10:14.818Z,21.65
2018-02-06T20:12:42.413Z,18.60
2018-02-06T20:15:11.243Z,19.23
2018-02-06T20:17:40.160Z,18.30
2018-02-06T20:20:10.095Z,18.30
2018-02-06T20:22:38.847Z,17.77
2018-02-06T20:25:06.540Z,18.63
2018-02-06T20:27:35.100Z,17.43
2018-02-06T20:30:03.944Z,17.93
2018-02-06T20:32:32.374Z,17.37
2018-02-06T20:35:00.053Z,18.23
2018-02-06T20:37:28.622Z,17.07
2018-02-06T20:39:57.069Z,19.50
2018-02-06T20:42:24.955Z,18.20
2018-02-06T20:44:53.724Z,18.47
2018-02-06T20:47:22.547Z,17.77
2018-02-06T20:49:50.235Z,18.37
2018-02-06T20:52:20.211Z,19.03
2018-02-06T20:54:47.885Z,19.30
2018-02-06T20:57:16.290Z,18.43
2018-02-06T20:59:44.072Z,18.37
2018-02-06T21:02:11.883Z,17.70
2018-02-06T21:04:39.538Z,19.17
2018-02-06T21:07:07.691Z,18.77
2018-02-06T21:09:36.009Z,19.03
2018-02-06T21:12:04.032Z,18.10
2018-02-06T21:14:33.851Z,18.53
2018-02-06T21:17:01.535Z,18.77
2018-02-06T21:19:29.645Z,18.67
2018-02-06T21:21:57.899Z,18.47
2018-02-06T21:24:25.685Z,18.27
2018-02-06T21:26:53.454Z,19.03
2018-02-06T21:29:21.139Z,18.80
2018-02-06T21:31:49.871Z,19.40
2018-02-06T21:34:17.556Z,19.97
2018-02-06T21:36:46.791Z,20.13
2018-02-06T21:39:14.468Z,19.50
2018-02-06T21:41:42.329Z,20.30
2018-02-06T21:44:12.201Z,20.07
2018-02-06T21:46:39.887Z,19.87
2018-02-06T21:49:07.546Z,19.87
2018-02-06T21:51:35.191Z,21.23
2018-02-06T21:54:02.856Z,20.93
2018-02-06T21:56:30.553Z,22.00
2018-02-06T21:58:58.996Z,20.53
2018-02-06T22:01:26.675Z,21.40
2018-02-06T22:03:54.311Z,20.93
2018-02-06T22:06:21.888Z,20.83
2018-02-06T22:08:49.546Z,21.73
2018-02-06T22:11:17.342Z,22.13
2018-02-06T22:13:46.235Z,21.70
2018-02-06T22:16:13.908Z,19.97
2018-02-06T22:18:43.424Z,21.40
2018-02-06T22:21:12.593Z,21.37
2018-02-06T22:23:41.404Z,22.53
2018-02-06T22:26:10.559Z,20.57
2018-02-06T22:28:38.596Z,19.33
2018-02-06T22:31:06.342Z,20.07
2018-02-06T22:33:34.804Z,19.77
2018-02-06T22:36:02.476Z,20.17
2018-02-06T22:38:30.673Z,20.93
2018-02-06T22:40:59.326Z,20.07
2018-02-06T22:43:34.466Z,20.07
2018-02-06T22:46:02.167Z,19.10
2018-02-06T22:48:31.324Z,18.93
2018-02-06T22:50:59.426Z,20.13
2018-02-06T22:53:27.089Z,20.50
2018-02-06T22:55:55.734Z,20.20
2018-02-06T22:58:23.404Z,19.93
2018-02-06T23:00:52.503Z,20.73
2018-02-06T23:03:21.105Z,19.93
2018-02-06T23:05:49.638Z,20.20
2018-02-06T23:08:18.504Z,20.80
2018-02-06T23:10:46.931Z,20.73
2018-02-06T23:13:14.618Z,20.57
2018-02-06T23:15:43.476Z,20.90
2018-02-06T23:18:11.869Z,20.50
2018-02-06T23:20:40.752Z,20.30
2018-02-06T23:23:08.447Z,20.70
2018-02-06T23:25:36.285Z,19.80
2018-02-06T23:28:04.408Z,20.87
2018-02-06T23:30:32.075Z,20.10
2018-02-06T23:33:01.511Z,20.67
2018-02-06T23:35:31.564Z,21.43
2018-02-06T23:38:00.050Z,20.60
2018-02-06T23:40:27.955Z,21.10
2018-02-06T23:42:56.225Z,20.47
2018-02-06T23:45:24.967Z,20.70
2018-02-06T23:47:52.787Z,21.20
2018-02-06T23:50:21.578Z,21.40
2018-02-06T23:52:50.742Z,21.17
2018-02-06T23:55:19.455Z,20.30
2018-02-06T23:57:49.778Z,20.77
